Time;durP1;ratioP1;P1;durP2;ratioP2;P2;SDS_P1;SDS_P2;PMS_P1;PMS_P2;Temp;Humidity;BMP_temperature;BMP_pressure;BME280_temperature;BME280_humidity;BME280_pressure;Samples;Min_cycle;Max_cycle;Signal;HPM_P1;HPM_P2
2023/09/10 00:02:18;;;;;;;19.02;10.40;;;;;;;19.37;100.00;101429.66;4962432;28;20046;-66
2023/09/10 00:04:44;;;;;;;16.77;10.52;;;;;;;19.35;100.00;101426.44;4966485;28;20088;-66
2023/09/10 00:07:09;;;;;;;17.85;11.25;;;;;;;19.32;100.00;101425.00;4964021;28;20042;-66
2023/09/10 00:09:34;;;;;;;19.92;10.73;;;;;;;19.32;100.00;101429.44;4963973;28;20034;-66
2023/09/10 00:12:00;;;;;;;16.17;10.57;;;;;;;19.32;100.00;101426.81;4950308;28;20046;-66
2023/09/10 00:14:25;;;;;;;17.02;10.20;;;;;;;19.32;100.00;101426.81;4946057;28;20038;-66
2023/09/10 00:16:51;;;;;;;15.05;10.52;;;;;;;19.32;100.00;101430.25;4961284;28;20047;-66
2023/09/10 00:19:17;;;;;;;15.88;10.48;;;;;;;19.33;100.00;101428.47;4962872;28;20069;-67
2023/09/10 00:21:42;;;;;;;18.83;9.73;;;;;;;19.30;100.00;101427.00;4946156;28;20042;-66
2023/09/10 00:24:10;;;;;;;16.45;10.95;;;;;;;19.24;100.00;101422.56;4946999;28;20033;-66
2023/09/10 00:26:36;;;;;;;18.58;11.05;;;;;;;19.19;100.00;101422.34;4963501;28;20062;-66
2023/09/10 00:29:02;;;;;;;14.13;10.73;;;;;;;19.17;100.00;101422.53;4963492;28;20421;-66
2023/09/10 00:31:28;;;;;;;14.05;10.55;;;;;;;19.17;100.00;101416.47;4941562;28;20120;-66
2023/09/10 00:33:53;;;;;;;17.45;11.25;;;;;;;19.14;100.00;101422.13;4950460;28;20034;-68
2023/09/10 00:36:19;;;;;;;15.88;10.55;;;;;;;19.07;100.00;101416.84;4963895;28;20038;-68
2023/09/10 00:38:44;;;;;;;15.98;10.25;;;;;;;19.03;100.00;101418.25;4964397;28;20031;-68
2023/09/10 00:41:10;;;;;;;15.35;10.80;;;;;;;18.99;100.00;101412.56;4947269;28;20039;-66
2023/09/10 00:43:35;;;;;;;18.35;11.23;;;;;;;18.95;100.00;101410.53;4966631;28;20938;-66
2023/09/10 00:46:02;;;;;;;17.08;10.50;;;;;;;18.92;100.00;101410.94;4946331;28;20498;-66
2023/09/10 00:48:28;;;;;;;15.73;10.05;;;;;;;18.89;100.00;101411.31;4967628;28;20415;-66
2023/09/10 00:50:54;;;;;;;14.82;9.52;;;;;;;18.84;100.00;101406.66;4964880;28;20057;-66
2023/09/10 00:53:21;;;;;;;13.70;10.68;;;;;;;18.81;100.00;101407.84;4951783;28;20405;-66
2023/09/10 00:55:48;;;;;;;16.50;10.63;;;;;;;18.79;100.00;101414.28;4951399;28;20051;-66
2023/09/10 00:58:13;;;;;;;18.25;11.30;;;;;;;18.80;100.00;101411.50;4961653;28;20043;-66
2023/09/10 01:00:42;;;;;;;16.95;10.60;;;;;;;18.81;100.00;101407.84;4951311;28;20045;-67
2023/09/10 01:03:09;;;;;;;15.40;10.18;;;;;;;18.83;100.00;101418.16;4966156;28;20031;-66
2023/09/10 01:05:36;;;;;;;15.63;10.07;;;;;;;18.81;100.00;101415.72;4950572;28;20077;-66
2023/09/10 01:08:05;;;;;;;16.38;10.15;;;;;;;18.78;100.00;101412.66;4952367;28;20038;-66
2023/09/10 01:10:55;;;;;;;14.60;10.43;;;;;;;18.73;100.00;101413.25;4952594;28;20027;-67
2023/09/10 01:13:38;;;;;;;16.50;10.38;;;;;;;18.70;100.00;101411.00;4950437;28;20105;-67
2023/09/10 01:16:11;;;;;;;;;;;;;;;18.67;100.00;101414.03;4964276;28;20405;-66
2023/09/10 01:18:46;;;;;;;16.92;10.38;;;;;;;18.67;100.00;101408.78;4970465;28;19924;-67
2023/09/10 01:21:40;;;;;;;14.23;10.65;;;;;;;18.70;100.00;101418.88;4965588;28;20560;-67
2023/09/10 01:24:27;;;;;;;14.32;10.15;;;;;;;18.67;100.00;101406.16;4967682;28;20307;-66
2023/09/10 01:26:57;;;;;;;18.35;10.68;;;;;;;18.60;100.00;101407.94;4947007;28;20042;-66
2023/09/10 01:29:23;;;;;;;16.83;10.98;;;;;;;18.56;100.00;101409.31;4962046;28;20717;-66
2023/09/10 01:31:52;;;;;;;17.00;10.50;;;;;;;18.52;100.00;101410.72;4951396;28;20054;-67
2023/09/10 01:34:21;;;;;;;14.90;10.52;;;;;;;18.47;100.00;101404.22;4958808;28;20041;-66
2023/09/10 01:36:52;;;;;;;17.23;11.60;;;;;;;18.43;100.00;101408.22;4950778;28;20466;-66
2023/09/10 01:39:25;;;;;;;16.63;9.38;;;;;;;18.41;100.00;101417.31;4968586;28;20125;-66
2023/09/10 01:41:51;;;;;;;15.60;10.95;;;;;;;18.44;100.00;101416.91;4968318;28;20039;-66
2023/09/10 01:44:18;;;;;;;13.55;9.70;;;;;;;18.46;100.00;101414.94;4954328;28;20042;-66
2023/09/10 01:46:45;;;;;;;16.15;11.02;;;;;;;18.46;100.00;101414.94;4967231;28;20034;-66
2023/09/10 01:49:10;;;;;;;15.73;10.23;;;;;;;18.46;100.00;101418.38;4953357;28;20027;-66
2023/09/10 01:51:36;;;;;;;11.45;9.32;;;;;;;18.44;100.00;101414.28;4953432;28;20504;-66
2023/09/10 01:54:02;;;;;;;17.98;10.82;;;;;;;18.40;100.00;101416.53;4952120;28;20042;-66
2023/09/10 01:56:27;;;;;;;18.55;10.95;;;;;;;18.35;100.00;101418.91;4952345;28;20035;-67
2023/09/10 01:58:53;;;;;;;15.32;9.43;;;;;;;18.32;100.00;101410.59;4953193;28;22747;-66
2023/09/10 02:01:18;;;;;;;13.00;9.75;;;;;;;18.26;100.00;101417.44;4967689;28;20039;-67
2023/09/10 02:03:43;;;;;;;17.95;10.30;;;;;;;18.23;100.00;101420.41;4953373;28;20022;-67
2023/09/10 02:06:09;;;;;;;17.77;10.70;;;;;;;18.18;100.00;101423.63;4955398;28;20034;-67
2023/09/10 02:08:35;;;;;;;16.23;10.65;;;;;;;18.16;100.00;101422.19;4967575;28;20511;-66
2023/09/10 02:11:04;;;;;;;17.33;10.82;;;;;;;18.14;100.00;101424.19;4953493;28;20054;-66
2023/09/10 02:13:30;;;;;;;19.52;10.75;;;;;;;18.13;100.00;101427.84;4955276;28;20105;-66
2023/09/10 02:15:56;;;;;;;15.23;11.35;;;;;;;18.12;100.00;101428.81;4952011;28;20082;-67
2023/09/10 02:18:22;;;;;;;15.70;10.32;;;;;;;18.08;100.00;101429.22;4954911;28;20046;-67
2023/09/10 02:20:48;;;;;;;17.00;10.38;;;;;;;18.10;100.00;101423.75;4949906;28;20063;-67
2023/09/10 02:23:13;;;;;;;16.98;10.43;;;;;;;18.11;100.00;101422.75;4960973;28;20173;-66
2023/09/10 02:25:39;;;;;;;18.05;10.18;;;;;;;18.13;100.00;101430.44;4955798;28;20050;-67
2023/09/10 02:28:04;;;;;;;15.38;10.38;;;;;;;18.15;100.00;101436.31;4971047;28;21686;-67
2023/09/10 02:30:30;;;;;;;14.15;10.70;;;;;;;18.15;100.00;101437.13;4949928;28;20034;-67
2023/09/10 02:32:55;;;;;;;19.20;10.43;;;;;;;18.16;100.00;101437.94;4953431;28;20498;-67
2023/09/10 02:35:21;;;;;;;15.13;10.40;;;;;;;18.18;100.00;101428.06;4952641;28;20089;-68
2023/09/10 02:37:47;;;;;;;12.68;9.75;;;;;;;18.17;100.00;101435.13;4953961;28;20470;-68
2023/09/10 02:40:12;;;;;;;16.38;10.93;;;;;;;18.16;100.00;101443.19;4953996;28;20037;-68
2023/09/10 02:42:39;;;;;;;17.58;11.23;;;;;;;18.11;100.00;101435.09;4968905;28;20051;-69
2023/09/10 02:45:05;;;;;;;14.95;10.35;;;;;;;18.04;100.00;101435.81;4952279;28;20042;-69
2023/09/10 02:47:31;;;;;;;17.67;9.90;;;;;;;17.95;100.00;101431.75;4962126;28;20572;-69
2023/09/10 02:49:57;;;;;;;18.52;9.77;;;;;;;17.89;100.00;101435.09;4947284;28;20031;-68
2023/09/10 02:52:24;;;;;;;15.98;11.15;;;;;;;17.84;100.00;101442.72;4948363;28;20039;-69
2023/09/10 02:54:52;;;;;;;18.20;11.43;;;;;;;17.81;100.00;101441.25;4950431;28;20031;-69
2023/09/10 02:57:18;;;;;;;15.70;11.23;;;;;;;17.79;100.00;101445.88;4966690;28;20035;-69
2023/09/10 02:59:43;;;;;;;12.52;10.15;;;;;;;17.77;100.00;101445.25;4947835;28;20034;-69
2023/09/10 03:02:09;;;;;;;15.18;10.52;;;;;;;17.75;100.00;101439.41;4949387;28;20560;-69
2023/09/10 03:04:34;;;;;;;15.43;10.85;;;;;;;17.74;100.00;101442.19;4949981;28;20030;-69
2023/09/10 03:07:03;;;;;;;18.30;10.52;;;;;;;17.72;100.00;101442.38;4948367;28;20031;-69
2023/09/10 03:09:29;;;;;;;16.23;10.38;;;;;;;17.69;100.00;101435.72;4951084;28;20042;-69
2023/09/10 03:12:21;;;;;;;14.48;11.10;;;;;;;17.67;100.00;101437.72;4948495;28;20039;-69
2023/09/10 03:14:47;;;;;;;15.93;10.33;;;;;;;17.65;100.00;101439.72;4952173;28;20042;-69
2023/09/10 03:17:13;;;;;;;15.02;10.57;;;;;;;17.62;100.00;101445.31;4954278;28;21063;-69
2023/09/10 03:19:39;;;;;;;17.52;11.48;;;;;;;17.60;100.00;101434.22;4950494;28;20042;-69
2023/09/10 03:22:04;;;;;;;15.02;10.18;;;;;;;17.60;100.00;101442.06;4931305;28;20035;-68
2023/09/10 03:24:33;;;;;;;14.90;11.30;;;;;;;17.58;100.00;101432.78;4947861;28;20490;-69
2023/09/10 03:26:59;;;;;;;15.65;11.02;;;;;;;17.56;100.00;101440.81;4963704;28;20035;-69
2023/09/10 03:29:24;;;;;;;20.80;11.82;;;;;;;17.54;100.00;101432.34;4946864;28;20895;-69
2023/09/10 03:31:50;;;;;;;14.93;11.10;;;;;;;17.53;100.00;101433.31;4948956;28;20065;-69
2023/09/10 03:34:15;;;;;;;14.75;11.10;;;;;;;17.53;100.00;101441.19;4949779;28;20038;-69
2023/09/10 03:36:41;;;;;;;14.60;10.88;;;;;;;17.51;100.00;101435.31;4949120;28;20058;-69
2023/09/10 03:39:07;;;;;;;16.00;9.95;;;;;;;17.46;100.00;101438.53;4950165;28;20081;-69
2023/09/10 03:41:32;;;;;;;14.25;10.30;;;;;;;17.45;100.00;101436.88;4957619;28;20035;-69
2023/09/10 03:43:59;;;;;;;14.43;9.88;;;;;;;17.43;100.00;101436.25;4966012;28;20031;-69
2023/09/10 03:46:25;;;;;;;14.82;9.98;;;;;;;17.40;100.00;101441.84;4948964;28;20038;-69
2023/09/10 03:48:51;;;;;;;15.98;10.15;;;;;;;17.39;100.00;101434.22;4948147;28;20041;-69
2023/09/10 03:51:17;;;;;;;12.20;9.18;;;;;;;17.36;100.00;101434.56;4950680;28;20444;-69
2023/09/10 03:53:43;;;;;;;14.32;9.68;;;;;;;17.35;100.00;101439.00;4950667;28;20062;-69
2023/09/10 03:56:09;;;;;;;12.13;9.93;;;;;;;17.37;100.00;101441.44;4948851;28;20531;-69
2023/09/10 03:58:34;;;;;;;17.60;10.20;;;;;;;17.39;100.00;101439.44;4949717;28;20043;-69
2023/09/10 04:01:00;;;;;;;16.20;10.55;;;;;;;17.42;100.00;101441.69;4962558;28;20043;-69
2023/09/10 04:03:26;;;;;;;16.25;10.60;;;;;;;17.43;100.00;101438.06;4935139;28;20043;-69
2023/09/10 04:05:52;;;;;;;14.02;9.55;;;;;;;17.45;100.00;101439.50;4964152;28;20126;-69
2023/09/10 04:08:18;;;;;;;13.38;9.73;;;;;;;17.47;100.00;101439.31;4966901;28;20180;-69
2023/09/10 04:10:43;;;;;;;16.92;9.70;;;;;;;17.47;100.00;101434.06;4965743;28;20043;-69
2023/09/10 04:13:09;;;;;;;15.02;9.35;;;;;;;17.43;100.00;101431.00;4954888;28;20039;-69
2023/09/10 04:15:35;;;;;;;14.75;9.48;;;;;;;17.40;100.00;101433.19;4964760;28;20397;-68
2023/09/10 04:18:00;;;;;;;15.18;10.50;;;;;;;17.37;100.00;101428.34;4965566;28;20031;-69
2023/09/10 04:20:25;;;;;;;16.38;10.25;;;;;;;17.35;100.00;101427.69;4972351;28;20058;-69
2023/09/10 04:22:51;;;;;;;16.50;10.30;;;;;;;17.33;100.00;101427.91;4931703;28;20473;-69
2023/09/10 04:25:17;;;;;;;18.85;10.85;;;;;;;17.30;100.00;101426.44;4954423;28;20031;-69
2023/09/10 04:27:42;;;;;;;15.63;10.70;;;;;;;17.26;100.00;101422.56;4954279;28;20046;-69
2023/09/10 04:30:09;;;;;;;18.75;10.57;;;;;;;17.25;100.00;101431.44;4947080;28;20106;-69
2023/09/10 04:32:34;;;;;;;14.82;9.77;;;;;;;17.22;100.00;101428.38;4935758;28;20125;-69
2023/09/10 04:35:01;;;;;;;18.25;10.40;;;;;;;17.20;100.00;101433.78;4964282;28;20031;-69
2023/09/10 04:37:27;;;;;;;18.35;11.02;;;;;;;17.20;100.00;101433.00;4950663;28;20034;-69
2023/09/10 04:39:53;;;;;;;15.57;10.38;;;;;;;17.19;100.00;101428.72;4949787;28;20578;-69
2023/09/10 04:42:18;;;;;;;14.75;10.75;;;;;;;17.18;100.00;101433.16;4949948;28;20047;-69
2023/09/10 04:44:44;;;;;;;16.20;11.38;;;;;;;17.15;100.00;101436.16;4946595;28;20039;-69
2023/09/10 04:47:09;;;;;;;20.88;11.43;;;;;;;17.14;100.00;101439.78;4937423;28;20043;-69
2023/09/10 04:49:35;;;;;;;14.38;10.82;;;;;;;17.12;100.00;101439.13;4950609;28;20130;-69
2023/09/10 04:52:01;;;;;;;17.52;12.23;;;;;;;17.12;100.00;101431.25;4953610;28;20038;-68
2023/09/10 04:54:26;;;;;;;16.27;11.63;;;;;;;17.13;100.00;101436.31;4956247;28;20421;-68
2023/09/10 04:56:53;;;;;;;16.05;10.32;;;;;;;17.11;100.00;101433.06;4947177;28;22319;-69
2023/09/10 04:59:20;;;;;;;18.98;11.80;;;;;;;17.12;100.00;101439.13;4963065;28;20498;-69
2023/09/10 05:01:46;;;;;;;20.27;11.07;;;;;;;17.12;100.00;101437.34;4952572;28;20063;-68
2023/09/10 05:04:11;;;;;;;17.75;11.20;;;;;;;17.13;100.00;101448.63;4953032;28;20058;-69
2023/09/10 05:06:37;;;;;;;20.20;11.98;;;;;;;17.13;100.00;101440.75;4951265;28;20074;-69
2023/09/10 05:09:03;;;;;;;16.90;10.35;;;;;;;17.16;100.00;101442.19;4951400;28;20406;-68
2023/09/10 05:11:28;;;;;;;16.52;11.35;;;;;;;17.17;100.00;101449.88;4954652;28;20064;-69
2023/09/10 05:13:55;;;;;;;18.13;11.18;;;;;;;17.21;100.00;101448.50;4952333;28;20034;-69
2023/09/10 05:16:21;;;;;;;15.68;10.57;;;;;;;17.21;100.00;101445.09;4956400;28;20503;-69
2023/09/10 05:18:47;;;;;;;16.00;10.20;;;;;;;17.23;100.00;101451.75;4970774;28;20046;-69
2023/09/10 05:21:15;;;;;;;15.27;10.65;;;;;;;17.26;100.00;101455.84;4951395;28;20049;-69
2023/09/10 05:23:40;;;;;;;18.60;11.30;;;;;;;17.27;100.00;101453.03;4953431;28;20583;-69
2023/09/10 05:26:06;;;;;;;19.52;10.45;;;;;;;17.29;100.00;101460.69;4952188;28;20126;-69
2023/09/10 05:28:32;;;;;;;14.85;10.18;;;;;;;17.32;100.00;101455.91;4950655;28;20129;-68
2023/09/10 05:31:03;;;;;;;19.95;10.27;;;;;;;17.34;100.00;101462.78;4955648;28;20180;-69
2023/09/10 05:33:29;;;;;;;18.35;10.82;;;;;;;17.36;100.00;101461.56;4965381;28;20409;-69
2023/09/10 05:35:56;;;;;;;18.35;10.60;;;;;;;17.37;100.00;101457.97;4954006;28;20042;-70
2023/09/10 05:38:23;;;;;;;17.90;10.90;;;;;;;17.37;100.00;101455.34;4952785;28;20596;-68
2023/09/10 05:40:48;;;;;;;15.52;10.05;;;;;;;17.37;100.00;101454.56;4966013;28;20114;-69
2023/09/10 05:43:15;;;;;;;16.13;10.63;;;;;;;17.38;100.00;101469.25;4951703;28;20026;-68
2023/09/10 05:45:40;;;;;;;20.98;10.95;;;;;;;17.38;100.00;101464.03;4951072;28;20397;-69
2023/09/10 05:48:06;;;;;;;15.00;11.00;;;;;;;17.38;100.00;101459.59;4951722;28;20042;-68
2023/09/10 05:50:32;;;;;;;14.20;10.85;;;;;;;17.40;100.00;101465.44;4964567;28;20747;-68
2023/09/10 05:52:59;;;;;;;20.92;11.80;;;;;;;17.44;100.00;101465.91;4962222;28;20053;-68
2023/09/10 05:55:26;;;;;;;16.88;10.95;;;;;;;17.47;100.00;101468.16;4951695;28;20027;-68
2023/09/10 05:57:52;;;;;;;19.42;12.38;;;;;;;17.50;100.00;101467.78;4950905;28;20042;-67
2023/09/10 06:00:20;;;;;;;18.73;11.18;;;;;;;17.52;100.00;101466.59;4955477;28;20030;-67
2023/09/10 06:02:47;;;;;;;18.95;11.65;;;;;;;17.56;100.00;101471.50;4961239;28;20067;-68
2023/09/10 06:05:13;;;;;;;16.80;11.50;;;;;;;17.59;100.00;101474.53;4950750;28;20030;-68
2023/09/10 06:07:39;;;;;;;21.15;11.88;;;;;;;17.65;100.00;101472.97;4948993;28;20034;-68
2023/09/10 06:10:08;;;;;;;18.67;11.38;;;;;;;17.70;100.00;101478.47;4962139;28;20053;-68
2023/09/10 06:12:38;;;;;;;18.40;12.40;;;;;;;17.77;100.00;101479.34;4950098;28;20630;-68
2023/09/10 06:15:05;;;;;;;18.48;12.23;;;;;;;17.83;100.00;101486.47;4949125;28;20038;-68
2023/09/10 06:17:32;;;;;;;19.02;11.93;;;;;;;17.88;100.00;101481.50;4952342;28;20046;-68
2023/09/10 06:19:57;;;;;;;23.83;13.25;;;;;;;17.96;100.00;101480.56;4951836;28;20039;-68
2023/09/10 06:22:23;;;;;;;18.25;13.20;;;;;;;18.02;100.00;101485.06;4952689;28;20039;-68
2023/09/10 06:24:49;;;;;;;29.73;17.70;;;;;;;18.17;100.00;101490.22;4968380;28;20029;-67
2023/09/10 06:27:14;;;;;;;32.05;19.52;;;;;;;18.43;100.00;101479.13;4962631;28;20039;-67
2023/09/10 06:29:40;;;;;;;34.35;19.23;;;;;;;18.47;100.00;101487.44;4965313;28;20041;-68
2023/09/10 06:32:06;;;;;;;25.98;17.15;;;;;;;18.49;100.00;101488.84;4951765;28;20161;-68
2023/09/10 06:34:32;;;;;;;34.38;18.88;;;;;;;18.66;100.00;101489.38;4955403;28;20461;-68
2023/09/10 06:36:58;;;;;;;31.27;20.17;;;;;;;18.77;100.00;101500.34;4952079;28;20049;-68
2023/09/10 06:39:25;;;;;;;30.23;17.60;;;;;;;18.91;100.00;101488.13;4966413;28;20525;-68
2023/09/10 06:41:54;;;;;;;31.20;18.42;;;;;;;19.05;100.00;101492.44;4950144;28;20031;-68
2023/09/10 06:44:19;;;;;;;31.10;19.40;;;;;;;19.31;100.00;101488.28;4829388;28;20507;-67
2023/09/10 06:46:45;;;;;;;30.88;18.50;;;;;;;19.58;100.00;101495.25;4899930;28;20040;-67
2023/09/10 06:49:10;;;;;;;29.52;17.15;;;;;;;20.04;100.00;101485.81;4905926;29;20047;-68
2023/09/10 06:51:36;;;;;;;39.10;19.88;;;;;;;20.54;100.00;101483.56;4922692;29;20440;-67
2023/09/10 06:54:01;;;;;;;27.48;16.85;;;;;;;21.15;100.00;101486.84;4913466;29;20040;-67
2023/09/10 06:56:29;;;;;;;27.02;16.25;;;;;;;21.62;98.78;101489.28;4908632;29;20044;-67
2023/09/10 06:58:54;;;;;;;33.75;16.85;;;;;;;22.02;94.45;101494.25;4907706;29;20115;-67
2023/09/10 07:01:21;;;;;;;26.20;15.10;;;;;;;22.48;92.75;101490.44;4921943;29;20047;-67
2023/09/10 07:03:51;;;;;;;25.42;15.20;;;;;;;22.81;90.05;101489.28;4924285;29;20391;-67
2023/09/10 07:06:16;;;;;;;24.60;14.27;;;;;;;23.00;87.96;101488.25;4910146;29;20126;-67
2023/09/10 07:08:42;;;;;;;27.33;13.07;;;;;;;23.31;87.10;101486.47;4905690;29;20402;-67
2023/09/10 07:11:07;;;;;;;21.67;12.65;;;;;;;23.75;85.61;101492.34;4912633;29;20048;-67
2023/09/10 07:13:34;;;;;;;31.83;14.65;;;;;;;23.88;82.04;101491.34;4923974;29;20160;-67
2023/09/10 07:15:59;;;;;;;20.33;11.88;;;;;;;24.07;80.84;101492.88;4912717;29;20051;-67
2023/09/10 07:18:26;;;;;;;20.58;12.88;;;;;;;24.33;81.66;101490.00;4923878;29;20033;-67
2023/09/10 07:20:52;;;;;;;31.60;14.20;;;;;;;24.56;77.89;101495.28;4908191;29;20036;-67
2023/09/10 07:23:18;;;;;;;20.23;13.48;;;;;;;24.70;77.20;101495.06;4909093;29;20075;-67
2023/09/10 07:25:43;;;;;;;26.42;12.35;;;;;;;24.61;76.73;101490.13;4914369;29;20043;-67
2023/09/10 07:28:09;;;;;;;17.92;10.90;;;;;;;24.91;76.08;101497.09;4908483;29;20040;-67
2023/09/10 07:30:34;;;;;;;20.42;11.57;;;;;;;25.15;75.07;101494.38;4913049;29;20024;-67
2023/09/10 07:33:00;;;;;;;27.10;12.05;;;;;;;25.27;73.77;101487.19;4909342;29;20391;-67
2023/09/10 07:35:27;;;;;;;19.10;11.18;;;;;;;25.21;72.46;101496.06;4908843;29;20036;-67
2023/09/10 07:37:54;;;;;;;22.58;13.20;;;;;;;25.43;73.34;101501.56;4909343;29;20115;-67
2023/09/10 07:40:19;;;;;;;23.33;11.93;;;;;;;25.75;72.08;101490.38;4906190;29;20040;-67
2023/09/10 07:42:45;;;;;;;24.30;11.32;;;;;;;25.82;70.78;101486.53;4907810;29;20063;-67
2023/09/10 07:45:14;;;;;;;18.63;10.48;;;;;;;26.14;69.56;101485.16;4913010;29;20071;-67
2023/09/10 07:47:40;;;;;;;26.45;11.45;;;;;;;26.25;68.39;101497.56;4918592;29;20498;-68
2023/09/10 07:50:06;;;;;;;20.58;9.27;;;;;;;26.54;68.80;101489.44;4910363;29;20423;-67
2023/09/10 07:52:33;;;;;;;19.67;10.45;;;;;;;26.72;68.77;101491.03;4922844;29;20082;-68
2023/09/10 07:54:58;;;;;;;22.63;10.32;;;;;;;26.70;68.38;101499.25;4906306;29;20040;-67
2023/09/10 07:57:26;;;;;;;23.77;12.45;;;;;;;27.00;68.66;101490.81;4922622;29;20087;-67
2023/09/10 07:59:52;;;;;;;20.02;13.40;;;;;;;26.95;68.80;101490.75;4912164;29;20038;-67
2023/09/10 08:02:17;;;;;;;29.48;12.30;;;;;;;27.26;68.53;101491.13;4905651;29;20799;-67
2023/09/10 08:04:44;;;;;;;22.95;10.95;;;;;;;27.54;67.05;101486.59;4924470;29;20427;-67
2023/09/10 08:07:10;;;;;;;21.63;10.27;;;;;;;27.69;66.00;101491.22;4913790;29;20123;-68
2023/09/10 08:09:37;;;;;;;18.85;9.73;;;;;;;27.77;65.84;101494.22;4906841;29;20051;-68
2023/09/10 08:12:04;;;;;;;18.88;9.32;;;;;;;28.07;64.29;101490.19;4907571;29;20056;-67
2023/09/10 08:14:29;;;;;;;20.65;12.05;;;;;;;27.77;63.82;101486.22;4924715;29;20044;-67
2023/09/10 08:16:55;;;;;;;19.48;9.93;;;;;;;27.91;63.87;101496.47;4942059;28;20036;-67
2023/09/10 08:19:21;;;;;;;20.58;10.43;;;;;;;27.99;64.35;101497.88;4928209;29;20039;-68
2023/09/10 08:21:47;;;;;;;25.58;9.52;;;;;;;28.13;62.52;101494.50;4913443;29;20503;-68
2023/09/10 08:24:12;;;;;;;18.33;9.27;;;;;;;28.42;63.05;101501.31;4923990;29;20475;-68
2023/09/10 08:26:38;;;;;;;21.95;10.65;;;;;;;28.65;61.47;101494.78;4943700;28;20047;-67
2023/09/10 08:29:04;;;;;;;25.10;11.00;;;;;;;28.44;59.98;101489.31;4908202;29;20607;-67
2023/09/10 08:31:30;;;;;;;19.70;9.00;;;;;;;28.68;60.58;101496.94;4903911;29;20055;-67
2023/09/10 08:33:55;;;;;;;17.45;9.35;;;;;;;28.89;59.07;101489.78;4928393;29;20044;-67
2023/09/10 08:36:21;;;;;;;18.30;8.52;;;;;;;29.16;59.51;101489.63;4913559;29;20039;-67
2023/09/10 08:38:46;;;;;;;19.85;8.68;;;;;;;29.18;57.52;101492.84;4927905;29;20454;-68
2023/09/10 08:41:31;;;;;;;20.55;8.32;;;;;;;29.30;57.49;101489.91;4913972;29;20040;-67
2023/09/10 08:43:58;;;;;;;26.55;8.82;;;;;;;29.28;55.94;101492.84;4917326;29;20487;-67
2023/09/10 08:46:30;;;;;;;19.98;8.73;;;;;;;29.51;56.25;101488.84;4912463;29;20087;-68
2023/09/10 08:48:56;;;;;;;16.50;7.73;;;;;;;29.72;55.33;101486.19;4922414;29;20106;-67
2023/09/10 08:51:22;;;;;;;19.25;7.55;;;;;;;29.73;55.80;101481.66;4915557;29;20135;-67
2023/09/10 08:53:50;;;;;;;20.50;7.45;;;;;;;29.70;55.02;101482.97;4951854;28;20571;-68
2023/09/10 08:56:15;;;;;;;20.70;8.00;;;;;;;29.84;55.09;101478.72;4918304;29;20042;-68
2023/09/10 08:58:43;;;;;;;18.23;7.55;;;;;;;30.00;54.70;101476.03;4928395;29;20047;-68
2023/09/10 09:01:09;;;;;;;17.75;7.60;;;;;;;29.93;55.16;101467.47;4910403;29;20040;-67
2023/09/10 09:03:35;;;;;;;17.83;7.43;;;;;;;29.99;54.87;101483.25;4913680;29;20032;-68
2023/09/10 09:06:05;;;;;;;16.33;8.05;;;;;;;30.22;55.72;101481.06;4928075;28;20044;-68
2023/09/10 09:08:32;;;;;;;21.45;7.93;;;;;;;30.33;54.04;101479.16;4930672;28;20032;-68
2023/09/10 09:11:03;;;;;;;16.73;7.75;;;;;;;30.37;53.21;101473.00;4919266;29;20043;-67
2023/09/10 09:13:33;;;;;;;16.55;8.32;;;;;;;30.08;54.87;101470.94;4913602;29;20482;-68
2023/09/10 09:16:00;;;;;;;20.00;7.78;;;;;;;30.11;53.21;101468.78;4933081;29;20711;-67
2023/09/10 09:18:28;;;;;;;19.05;7.72;;;;;;;30.01;53.26;101459.72;4915422;29;20044;-68
2023/09/10 09:20:58;;;;;;;14.18;6.78;;;;;;;29.99;54.59;101466.38;4917513;29;20039;-68
2023/09/10 09:23:31;;;;;;;13.32;6.25;;;;;;;30.04;53.46;101469.06;4919885;29;20139;-65
2023/09/10 09:25:57;;;;;;;13.48;6.65;;;;;;;30.15;52.21;101465.28;4927098;29;20057;-65
2023/09/10 09:28:23;;;;;;;18.02;6.35;;;;;;;30.15;51.36;101459.94;4917138;29;20048;-65
2023/09/10 09:30:49;;;;;;;24.80;6.80;;;;;;;30.24;50.85;101457.53;4930567;29;20132;-65
2023/09/10 09:33:15;;;;;;;12.60;6.05;;;;;;;30.17;51.35;101460.47;4913747;29;20032;-64
2023/09/10 09:35:40;;;;;;;19.70;6.50;;;;;;;30.23;51.99;101456.72;4928396;29;20036;-65
2023/09/10 09:38:10;;;;;;;19.05;6.13;;;;;;;30.16;49.88;101456.22;4915440;29;20055;-65
2023/09/10 09:40:36;;;;;;;17.30;6.35;;;;;;;30.17;49.71;101455.13;4914593;29;20032;-65
2023/09/10 09:43:02;;;;;;;18.27;7.18;;;;;;;30.29;50.38;101452.16;4914474;29;20051;-65
2023/09/10 09:45:29;;;;;;;14.00;6.50;;;;;;;30.49;49.10;101451.28;4916985;29;20036;-65
2023/09/10 09:47:54;;;;;;;24.90;8.05;;;;;;;30.58;49.16;101448.84;4943425;28;20488;-65
2023/09/10 09:50:20;;;;;;;15.25;6.30;;;;;;;30.34;48.45;101452.16;4928663;29;20044;-65
2023/09/10 09:52:55;;;;;;;21.95;6.50;;;;;;;30.21;49.19;101452.69;4910961;29;20048;-64
2023/09/10 09:55:21;;;;;;;17.23;6.00;;;;;;;30.40;51.81;101447.59;4928550;29;20036;-65
2023/09/10 09:57:47;;;;;;;15.82;6.38;;;;;;;30.44;50.99;101444.09;4932525;28;20139;-65
2023/09/10 10:00:13;;;;;;;15.90;6.93;;;;;;;30.45;47.96;101445.69;4930900;28;20024;-65
2023/09/10 10:02:40;;;;;;;18.15;7.47;;;;;;;30.45;47.65;101443.00;4911662;29;20402;-65
2023/09/10 10:05:07;;;;;;;18.27;6.68;;;;;;;30.45;47.16;101439.53;4931953;29;20054;-65
2023/09/10 10:07:35;;;;;;;13.73;6.07;;;;;;;30.48;48.36;101439.00;4914071;29;20122;-65
2023/09/10 10:10:00;;;;;;;16.75;6.15;;;;;;;30.39;48.87;101441.44;4910280;29;20039;-65
2023/09/10 10:12:27;;;;;;;13.82;6.20;;;;;;;30.49;48.34;101437.13;4916524;29;20052;-65
2023/09/10 10:14:55;;;;;;;17.08;6.80;;;;;;;30.73;49.43;101429.25;4929027;29;20121;-67
2023/09/10 10:17:22;;;;;;;12.50;5.90;;;;;;;30.70;48.66;101430.56;4912121;29;20080;-67
2023/09/10 10:19:50;;;;;;;11.48;6.50;;;;;;;30.79;49.68;101430.81;4925954;29;20039;-67
2023/09/10 10:22:16;;;;;;;15.70;6.18;;;;;;;30.93;50.29;101431.00;4911199;29;20503;-65
2023/09/10 10:24:42;;;;;;;13.02;6.63;;;;;;;30.99;49.33;101428.03;4909263;29;20123;-65
2023/09/10 10:27:08;;;;;;;10.43;5.45;;;;;;;30.88;46.86;101425.66;4911008;28;20439;-64
2023/09/10 10:29:33;;;;;;;20.10;6.20;;;;;;;30.88;49.59;101421.09;4910233;29;20048;-65
2023/09/10 10:32:04;;;;;;;20.65;6.18;;;;;;;30.90;50.40;101426.19;4912867;29;20511;-64
2023/09/10 10:34:40;;;;;;;19.52;6.50;;;;;;;30.99;48.78;101416.53;4916586;29;20036;-65
2023/09/10 10:37:24;;;;;;;17.63;6.07;;;;;;;31.26;48.59;101423.28;4914022;29;20047;-64
2023/09/10 10:39:49;;;;;;;16.45;5.60;;;;;;;31.28;48.98;101421.13;4914043;29;20041;-67
2023/09/10 10:42:17;;;;;;;18.25;5.97;;;;;;;31.55;48.35;101412.56;4911629;28;20854;-68
2023/09/10 10:44:43;;;;;;;17.52;4.93;;;;;;;31.24;49.02;101408.28;4912296;29;20123;-67
2023/09/10 10:47:22;;;;;;;12.85;5.65;;;;;;;31.34;50.12;101404.69;4935695;28;20106;-67
2023/09/10 10:49:53;;;;;;;17.00;5.38;;;;;;;31.39;48.37;101401.19;4931201;28;20031;-65
2023/09/10 10:52:24;;;;;;;16.60;6.15;;;;;;;31.48;47.25;101406.78;4913594;29;20128;-65
2023/09/10 10:54:51;;;;;;;19.45;5.32;;;;;;;31.38;46.39;101403.09;4915418;29;20102;-65
2023/09/10 10:57:19;;;;;;;18.83;5.78;;;;;;;31.49;46.61;101403.00;4915216;29;20039;-65
2023/09/10 10:59:45;;;;;;;13.70;5.00;;;;;;;31.49;47.50;101397.66;4937684;28;20574;-65
2023/09/10 11:02:23;;;;;;;8.02;4.78;;;;;;;31.42;50.97;101389.94;4913302;29;20131;-64
2023/09/10 11:04:56;;;;;;;10.57;4.55;;;;;;;31.54;47.21;101390.34;4928607;29;20040;-65
2023/09/10 11:07:22;;;;;;;9.07;4.55;;;;;;;31.70;47.04;101390.19;4913128;29;20048;-65